createdAt,value
2018-02-06T00:01:47.421Z,33.83
2018-02-06T00:04:15.684Z,38.37
2018-02-06T00:06:43.224Z,33.37
2018-02-06T00:09:10.711Z,32.10
2018-02-06T00:11:38.197Z,33.20
2018-02-06T00:14:06.459Z,34.13
2018-02-06T00:16:34.708Z,32.13
2018-02-06T00:19:02.212Z,36.20
2018-02-06T00:21:29.713Z,36.37
2018-02-06T00:23:57.192Z,33.57
2018-02-06T00:26:24.714Z,32.80
2018-02-06T00:28:52.188Z,35.60
2018-02-06T00:31:19.688Z,36.07
2018-02-06T00:33:47.960Z,39.33
2018-02-06T00:36:15.504Z,35.33
2018-02-06T00:38:42.999Z,36.87
2018-02-06T00:41:11.244Z,40.97
2018-02-06T00:43:38.720Z,42.07
2018-02-06T00:46:07.007Z,40.10
2018-02-06T00:48:34.493Z,44.00
2018-02-06T00:51:02.038Z,43.60
2018-02-06T00:53:29.525Z,41.00
2018-02-06T00:55:57.036Z,41.43
2018-02-06T00:58:25.324Z,41.77
2018-02-06T01:00:53.565Z,41.90
2018-02-06T01:03:21.050Z,44.90
2018-02-06T01:05:49.361Z,43.00
2018-02-06T01:08:16.884Z,45.23
2018-02-06T01:10:45.119Z,51.40
2018-02-06T01:13:12.640Z,51.43
2018-02-06T01:15:40.116Z,51.10
2018-02-06T01:18:07.588Z,50.13
2018-02-06T01:20:35.068Z,50.90
2018-02-06T01:23:02.539Z,47.63
2018-02-06T01:25:30.109Z,49.20
2018-02-06T01:27:57.588Z,46.43
2018-02-06T01:30:25.829Z,47.03
2018-02-06T01:32:53.324Z,48.27
2018-02-06T01:35:21.572Z,49.43
2018-02-06T01:37:49.046Z,45.00
2018-02-06T01:40:17.334Z,46.47
2018-02-06T01:42:45.584Z,44.83
2018-02-06T01:45:13.065Z,43.87
2018-02-06T01:47:41.340Z,44.37
2018-02-06T01:50:09.578Z,41.73
2018-02-06T01:52:37.052Z,43.57
2018-02-06T01:55:04.549Z,43.03
2018-02-06T01:57:32.028Z,39.73
2018-02-06T01:59:59.506Z,41.30
2018-02-06T02:02:27.000Z,43.70
2018-02-06T02:04:54.470Z,42.40
2018-02-06T02:07:22.709Z,41.60
2018-02-06T02:09:50.198Z,42.97
2018-02-06T02:12:18.436Z,40.73
2018-02-06T02:14:45.969Z,45.77
2018-02-06T02:17:13.500Z,40.90
2018-02-06T02:19:41.753Z,44.70
2018-02-06T02:22:09.248Z,41.77
2018-02-06T02:24:36.729Z,41.40
2018-02-06T02:27:04.244Z,40.43
2018-02-06T02:29:31.724Z,40.00
2018-02-06T02:31:59.968Z,43.70
2018-02-06T02:34:27.476Z,41.13
2018-02-06T02:36:54.960Z,42.67
2018-02-06T02:39:22.460Z,40.87
2018-02-06T04:40:01.603Z,46.70
2018-02-06T04:42:29.123Z,46.07
2018-02-06T04:44:56.634Z,47.47
2018-02-06T04:47:24.111Z,48.73
2018-02-06T04:49:51.629Z,45.90
2018-02-06T04:52:19.110Z,46.80
2018-02-06T04:54:46.575Z,47.17
2018-02-06T04:57:14.076Z,48.57
2018-02-06T04:59:41.553Z,48.90
2018-02-06T05:02:09.033Z,45.90
2018-02-06T05:04:36.539Z,48.20
2018-02-06T05:07:04.792Z,48.20
2018-02-06T05:09:32.267Z,46.13
2018-02-06T05:12:00.525Z,48.87
2018-02-06T05:14:28.009Z,48.47
2018-02-06T05:16:56.256Z,50.60
2018-02-06T05:19:23.745Z,48.83
2018-02-06T05:21:51.987Z,50.30
2018-02-06T05:24:19.508Z,47.70
2018-02-06T05:26:46.982Z,49.63
2018-02-06T05:29:14.468Z,51.50
2018-02-06T05:31:41.964Z,51.80
2018-02-06T05:34:10.203Z,53.70
2018-02-06T05:36:37.692Z,53.80
2018-02-06T05:39:05.951Z,53.80
2018-02-06T05:41:33.423Z,50.83
2018-02-06T05:44:01.673Z,51.90
2018-02-06T05:46:29.169Z,52.30
2018-02-06T05:48:57.572Z,52.10
2018-02-06T05:51:25.054Z,49.63
2018-02-06T05:53:52.560Z,49.17
2018-02-06T05:56:20.861Z,46.50
2018-02-06T05:58:48.340Z,45.67
2018-02-06T06:01:15.873Z,48.40
2018-02-06T06:03:43.384Z,49.50
2018-02-06T06:06:10.868Z,50.20
2018-02-06T06:08:38.364Z,50.90
2018-02-06T06:11:05.841Z,48.80
2018-02-06T06:13:33.317Z,49.67
2018-02-06T06:16:00.820Z,49.40
2018-02-06T06:18:28.303Z,49.87
2018-02-06T06:20:55.863Z,51.60
2018-02-06T06:23:23.380Z,49.27
2018-02-06T06:25:51.643Z,51.77
2018-02-06T06:28:19.141Z,53.17
2018-02-06T06:30:46.643Z,51.93
2018-02-06T06:33:14.133Z,53.43
2018-02-06T06:35:42.376Z,49.00
2018-02-06T06:38:09.862Z,50.50
2018-02-06T06:40:38.120Z,49.97
2018-02-06T06:43:05.621Z,48.20
2018-02-06T06:45:33.869Z,50.43
2018-02-06T06:48:01.341Z,50.57
2018-02-06T06:50:29.650Z,50.07
2018-02-06T06:52:57.152Z,48.03
2018-02-06T06:55:24.648Z,47.93
2018-02-06T06:57:52.988Z,45.13
2018-02-06T07:00:20.497Z,46.90
2018-02-06T07:02:48.016Z,48.83
2018-02-06T07:05:15.504Z,45.77
2018-02-06T07:07:43.751Z,45.37
2018-02-06T07:10:11.247Z,48.50
2018-02-06T07:12:38.792Z,46.20
2018-02-06T07:15:07.047Z,49.93
2018-02-06T07:17:34.546Z,50.30
2018-02-06T07:20:02.040Z,50.77
2018-02-06T07:22:29.523Z,48.63
2018-02-06T07:24:57.047Z,48.27
2018-02-06T07:27:24.571Z,50.30
2018-02-06T07:29:52.852Z,51.67
2018-02-06T07:32:21.128Z,52.03
2018-02-06T07:34:49.368Z,49.30
2018-02-06T07:37:16.864Z,50.67
2018-02-06T07:39:45.676Z,49.00
2018-02-06T07:42:13.144Z,50.47
2018-02-06T07:44:40.642Z,50.10
2018-02-06T07:47:08.115Z,46.97
2018-02-06T07:49:35.592Z,49.57
2018-02-06T07:52:03.868Z,50.83
2018-02-06T07:54:32.142Z,50.07
2018-02-06T07:56:59.643Z,52.33
2018-02-06T07:59:27.132Z,51.83
2018-02-06T08:01:54.632Z,54.67
2018-02-06T08:04:22.118Z,50.67
2018-02-06T08:06:49.608Z,52.20
2018-02-06T08:09:17.098Z,47.60
2018-02-06T08:11:45.355Z,53.47
2018-02-06T08:14:12.864Z,49.13
2018-02-06T08:16:40.363Z,48.87
2018-02-06T08:19:07.831Z,46.70
2018-02-06T08:21:35.336Z,46.00
2018-02-06T08:24:02.810Z,47.60
2018-02-06T08:26:30.320Z,47.50
2018-02-06T08:28:58.607Z,45.03
2018-02-06T08:31:26.889Z,42.50
2018-02-06T08:33:54.368Z,44.83
2018-02-06T08:36:21.868Z,44.90
2018-02-06T08:38:49.349Z,45.30
2018-02-06T08:41:17.613Z,45.80
2018-02-06T08:43:45.112Z,44.00
2018-02-06T08:46:12.597Z,44.70
2018-02-06T08:48:40.120Z,46.00
2018-02-06T08:51:07.674Z,47.60
2018-02-06T08:53:35.957Z,45.17
2018-02-06T08:56:04.243Z,45.97
2018-02-06T08:58:31.727Z,45.63
2018-02-06T09:00:59.212Z,44.53
2018-02-06T09:03:26.706Z,43.53
2018-02-06T09:05:54.225Z,43.33
2018-02-06T09:08:21.676Z,47.47
2018-02-06T09:10:49.148Z,49.20
2018-02-06T09:13:16.631Z,43.60
2018-02-06T09:15:44.119Z,48.20
2018-02-06T09:18:11.598Z,46.60
2018-02-06T09:20:39.100Z,45.23
2018-02-06T09:23:06.585Z,66.17
2018-02-06T09:25:34.828Z,50.97
2018-02-06T09:28:02.322Z,52.17
2018-02-06T09:30:29.803Z,47.43
2018-02-06T09:32:57.269Z,46.97
2018-02-06T09:35:24.752Z,47.90
2018-02-06T09:37:52.228Z,48.67
2018-02-06T09:40:20.516Z,46.00
2018-02-06T09:42:48.770Z,47.47
2018-02-06T09:45:16.244Z,47.20
2018-02-06T09:47:44.533Z,51.67
2018-02-06T09:50:12.776Z,46.50
2018-02-06T09:52:40.290Z,54.73
2018-02-06T09:55:08.546Z,52.13
2018-02-06T09:57:36.832Z,43.63
2018-02-06T10:00:05.068Z,43.67
2018-02-06T10:02:32.547Z,41.07
2018-02-06T10:05:00.037Z,38.93
2018-02-06T10:07:27.544Z,36.00
2018-02-06T10:09:55.051Z,34.63
2018-02-06T10:12:23.293Z,35.90
2018-02-06T10:14:50.840Z,36.00
2018-02-06T10:17:18.312Z,35.83
2018-02-06T10:19:45.808Z,37.83
2018-02-06T10:22:13.328Z,31.97
2018-02-06T10:24:40.804Z,33.30
2018-02-06T10:27:08.284Z,36.60
2018-02-06T10:29:36.544Z,32.20
2018-02-06T10:32:04.785Z,30.87
2018-02-06T10:34:32.277Z,31.27
2018-02-06T10:37:00.539Z,29.47
2018-02-06T10:39:28.016Z,29.30
2018-02-06T10:41:56.259Z,27.93
2018-02-06T10:44:23.754Z,30.47
2018-02-06T10:46:52.030Z,30.00
2018-02-06T10:49:20.348Z,32.90
2018-02-06T10:51:47.907Z,31.90
2018-02-06T10:54:15.398Z,32.93
2018-02-06T10:56:42.891Z,30.70
2018-02-06T10:59:11.135Z,31.17
2018-02-06T11:01:38.662Z,29.10
2018-02-06T11:04:06.147Z,30.20
2018-02-06T11:06:33.627Z,29.90
2018-02-06T11:09:02.324Z,28.97
2018-02-06T11:11:29.884Z,28.40
2018-02-06T11:13:58.143Z,30.40
2018-02-06T11:16:25.640Z,29.23
2018-02-06T11:18:53.908Z,28.00
2018-02-06T11:21:22.149Z,29.20
2018-02-06T11:23:49.636Z,29.53
2018-02-06T11:26:17.893Z,27.53
2018-02-06T11:28:45.384Z,28.37
2018-02-06T11:31:13.644Z,27.17
2018-02-06T11:33:41.121Z,28.00
2018-02-06T11:36:09.401Z,30.73
2018-02-06T11:38:36.892Z,27.30
2018-02-06T11:41:04.466Z,27.97
2018-02-06T11:43:31.955Z,30.40
2018-02-06T11:45:59.443Z,35.67
2018-02-06T11:48:26.986Z,28.07
2018-02-06T11:50:54.592Z,26.63
2018-02-06T11:53:22.075Z,29.40
2018-02-06T11:55:49.568Z,27.57
2018-02-06T11:58:17.843Z,27.83
2018-02-06T12:00:46.131Z,28.07
2018-02-06T12:03:13.626Z,25.70
2018-02-06T12:05:41.111Z,25.77
2018-02-06T12:08:09.164Z,25.83
2018-02-06T12:10:36.720Z,26.40
2018-02-06T12:13:04.243Z,27.40
2018-02-06T12:15:32.507Z,26.10
2018-02-06T12:18:00.936Z,29.27
2018-02-06T12:20:28.416Z,30.07
2018-02-06T12:22:55.910Z,27.63
2018-02-06T12:25:24.184Z,29.47
2018-02-06T12:27:52.435Z,28.57
2018-02-06T12:30:19.991Z,28.83
2018-02-06T12:32:47.482Z,26.93
2018-02-06T12:35:15.543Z,27.73
2018-02-06T12:37:43.100Z,25.67
2018-02-06T12:40:11.380Z,26.37
2018-02-06T12:42:39.659Z,30.37
2018-02-06T12:45:07.959Z,24.73
2018-02-06T12:47:36.252Z,25.10
2018-02-06T12:50:03.740Z,26.17
2018-02-06T12:52:31.239Z,24.40
2018-02-06T12:54:59.492Z,27.80
2018-02-06T12:57:27.066Z,28.13
2018-02-06T12:59:54.673Z,25.33
2018-02-06T13:02:22.157Z,24.90
2018-02-06T13:04:49.739Z,27.20
2018-02-06T13:07:17.315Z,27.60
2018-02-06T13:09:45.619Z,26.90
2018-02-06T13:12:13.153Z,26.20
2018-02-06T13:14:41.431Z,26.73
2018-02-06T13:17:09.676Z,29.50
2018-02-06T13:19:37.164Z,27.60
2018-02-06T13:22:05.409Z,25.97
2018-02-06T13:24:32.924Z,24.47
2018-02-06T13:27:00.429Z,28.23
2018-02-06T13:29:27.946Z,26.30
2018-02-06T13:31:55.448Z,26.30
2018-02-06T13:34:22.924Z,25.60
2018-02-06T13:36:50.420Z,26.40
2018-02-06T13:39:18.688Z,26.67
2018-02-06T13:41:46.927Z,26.33
2018-02-06T13:44:14.423Z,27.57
2018-02-06T13:46:42.685Z,26.10
2018-02-06T13:49:10.951Z,24.33
2018-02-06T13:51:39.239Z,26.17
2018-02-06T13:54:06.720Z,27.13
2018-02-06T13:56:34.975Z,27.03
2018-02-06T13:59:03.249Z,27.43
2018-02-06T14:01:30.728Z,27.73
2018-02-06T14:03:58.994Z,28.50
2018-02-06T14:06:27.227Z,27.57
2018-02-06T14:08:54.725Z,26.80
2018-02-06T14:11:23.088Z,29.13
2018-02-06T14:13:50.561Z,24.33
2018-02-06T14:16:18.831Z,26.57
2018-02-06T14:18:46.342Z,26.20
2018-02-06T14:21:13.822Z,27.17
2018-02-06T14:23:41.340Z,26.50
2018-02-06T14:26:09.596Z,24.10
2018-02-06T14:28:37.871Z,27.70
2018-02-06T14:31:06.140Z,28.63
2018-02-06T14:33:33.620Z,27.97
2018-02-06T14:36:01.102Z,27.47
2018-02-06T14:38:28.596Z,26.57
2018-02-06T14:40:56.063Z,28.10
2018-02-06T14:43:23.545Z,29.23
2018-02-06T14:45:51.819Z,28.27
2018-02-06T14:48:20.092Z,28.83
2018-02-06T14:50:47.569Z,27.60
2018-02-06T14:53:15.838Z,29.70
2018-02-06T14:55:44.088Z,31.00
2018-02-06T14:58:11.587Z,29.83
2018-02-06T15:00:39.849Z,28.30
2018-02-06T15:03:08.104Z,28.97
2018-02-06T15:05:35.591Z,31.63
2018-02-06T15:08:03.099Z,31.00
2018-02-06T15:10:30.579Z,28.30
2018-02-06T15:12:58.828Z,31.33
2018-02-06T15:15:26.328Z,30.97
2018-02-06T15:17:53.808Z,31.50
2018-02-06T15:20:22.076Z,28.87
2018-02-06T15:22:50.341Z,31.00
2018-02-06T15:25:18.588Z,30.00
2018-02-06T15:27:46.077Z,29.70
2018-02-06T15:30:13.753Z,30.93
2018-02-06T15:32:41.995Z,28.20
2018-02-06T15:35:09.478Z,27.83
2018-02-06T15:37:37.758Z,28.13
2018-02-06T15:40:06.034Z,28.03
2018-02-06T15:42:34.315Z,29.03
2018-02-06T15:45:02.589Z,30.23
2018-02-06T15:47:30.064Z,29.67
2018-02-06T15:49:58.308Z,28.73
2018-02-06T15:52:25.810Z,29.50
2018-02-06T15:54:53.291Z,31.13
2018-02-06T15:57:20.850Z,27.90
2018-02-06T15:59:48.364Z,28.00
2018-02-06T16:02:16.611Z,27.93
2018-02-06T16:04:44.108Z,27.80
2018-02-06T16:07:12.358Z,26.13
2018-02-06T16:09:40.871Z,26.73
2018-02-06T16:12:09.140Z,27.60
2018-02-06T16:14:37.416Z,28.83
2018-02-06T16:17:05.668Z,26.57
2018-02-06T16:19:33.171Z,26.60
2018-02-06T16:22:00.648Z,27.53
2018-02-06T16:24:28.144Z,28.07
2018-02-06T16:26:55.628Z,28.40
2018-02-06T16:29:24.093Z,26.97
2018-02-06T16:31:51.591Z,27.53
2018-02-06T16:34:19.195Z,28.97
2018-02-06T16:36:46.686Z,28.87
2018-02-06T16:39:14.957Z,29.87
2018-02-06T16:41:42.467Z,29.70
2018-02-06T16:44:10.001Z,28.73
2018-02-06T16:46:38.264Z,28.10
2018-02-06T16:49:06.526Z,25.87
2018-02-06T16:51:34.055Z,27.53
2018-02-06T16:54:01.563Z,23.90
2018-02-06T16:56:29.829Z,26.50
2018-02-06T16:58:58.107Z,24.50
2018-02-06T17:01:26.383Z,25.03
2018-02-06T17:03:54.652Z,24.00
2018-02-06T17:06:22.184Z,20.37
2018-02-06T17:08:49.768Z,22.50
2018-02-06T17:11:17.536Z,22.47
2018-02-06T17:13:45.844Z,21.63
2018-02-06T17:16:14.085Z,20.23
2018-02-06T17:18:41.715Z,23.07
2018-02-06T17:21:09.193Z,19.60
2018-02-06T17:23:36.675Z,19.47
2018-02-06T17:26:04.195Z,20.10
2018-02-06T17:28:31.680Z,18.60
2018-02-06T17:30:59.960Z,21.43
2018-02-06T17:33:27.481Z,19.43
2018-02-06T17:35:54.986Z,20.10
2018-02-06T17:38:22.470Z,17.63
2018-02-06T17:40:50.728Z,19.10
2018-02-06T17:43:18.203Z,17.97
2018-02-06T17:45:46.511Z,16.23
2018-02-06T17:48:14.036Z,16.30
2018-02-06T17:50:42.315Z,18.10
2018-02-06T17:53:11.073Z,16.33
2018-02-06T17:55:39.475Z,16.43
2018-02-06T17:58:07.330Z,16.17
2018-02-06T18:00:34.796Z,14.50
2018-02-06T18:03:02.447Z,14.90
2018-02-06T18:05:30.306Z,14.87
2018-02-06T18:07:58.467Z,197.43
2018-02-06T18:10:27.013Z,55.07
2018-02-06T18:12:54.729Z,21.33
2018-02-06T18:15:22.296Z,29.20
2018-02-06T18:17:49.794Z,16.17
2018-02-06T18:20:17.291Z,43.40
2018-02-06T18:22:44.791Z,18.83
2018-02-06T18:25:13.802Z,69.77
2018-02-06T18:27:41.390Z,12.63
2018-02-06T18:30:08.923Z,23.27
2018-02-06T18:32:38.266Z,28.43
2018-02-06T18:35:05.785Z,15.97
2018-02-06T18:37:34.357Z,12.00
2018-02-06T18:40:03.905Z,14.07
2018-02-06T18:42:32.459Z,14.10
2018-02-06T18:45:00.806Z,13.50
2018-02-06T18:47:28.417Z,12.60
2018-02-06T18:49:56.531Z,11.63
2018-02-06T18:52:24.678Z,12.90
2018-02-06T18:54:53.059Z,11.83
2018-02-06T18:57:20.926Z,12.87
2018-02-06T18:59:48.619Z,12.77
2018-02-06T19:02:16.401Z,12.00
2018-02-06T19:04:43.898Z,12.70
2018-02-06T19:07:12.500Z,13.83
2018-02-06T19:09:40.676Z,16.10
2018-02-06T19:12:08.171Z,16.70
2018-02-06T19:14:35.648Z,17.70
2018-02-06T19:17:03.154Z,16.40
2018-02-06T19:19:30.632Z,17.60
2018-02-06T19:21:58.104Z,22.20
2018-02-06T19:24:25.603Z,17.20
2018-02-06T19:26:53.980Z,16.63
2018-02-06T19:29:22.726Z,18.63
2018-02-06T19:31:50.251Z,19.87
2018-02-06T19:34:17.772Z,19.03
2018-02-06T19:36:45.288Z,18.20
2018-02-06T19:39:12.777Z,16.60
2018-02-06T19:41:40.251Z,20.67
2018-02-06T19:44:08.551Z,18.90
2018-02-06T19:46:36.806Z,22.23
2018-02-06T19:49:05.052Z,17.17
2018-02-06T19:51:32.560Z,13.60
2018-02-06T19:54:00.846Z,18.40
2018-02-06T19:56:28.405Z,15.20
2018-02-06T19:58:56.659Z,17.60
2018-02-06T20:01:24.964Z,13.47
2018-02-06T20:03:52.500Z,14.60
2018-02-06T20:06:20.741Z,13.63
2018-02-06T20:08:48.289Z,14.93
2018-02-06T20:11:16.058Z,12.20
2018-02-06T20:13:44.344Z,11.97
2018-02-06T20:16:11.836Z,14.97
2018-02-06T20:18:40.144Z,14.90
2018-02-06T20:21:07.628Z,13.20
2018-02-06T20:23:35.127Z,17.00
2018-02-06T20:26:02.618Z,14.40
2018-02-06T20:28:30.158Z,12.10
2018-02-06T20:30:58.412Z,13.73
2018-02-06T20:33:25.887Z,15.70
2018-02-06T20:35:53.385Z,15.07
2018-02-06T20:38:20.862Z,12.97
2018-02-06T20:40:48.345Z,12.70
2018-02-06T20:43:15.879Z,13.00
2018-02-06T20:45:43.368Z,12.90
2018-02-06T20:48:10.853Z,16.23
2018-02-06T20:50:39.157Z,12.80
2018-02-06T20:53:07.420Z,15.37
2018-02-06T20:55:35.701Z,13.50
2018-02-06T20:58:03.237Z,11.73
2018-02-06T21:00:31.494Z,12.30
2018-02-06T21:02:59.124Z,12.07
2018-02-06T21:05:26.729Z,11.63
2018-02-06T21:07:54.199Z,11.27
2018-02-06T21:10:22.018Z,16.13
2018-02-06T21:12:49.554Z,11.93
2018-02-06T21:15:17.032Z,12.93
2018-02-06T21:17:44.520Z,14.30
2018-02-06T21:20:11.997Z,12.63
2018-02-06T21:22:40.451Z,11.57
2018-02-06T21:25:08.933Z,12.10
2018-02-06T21:27:36.457Z,10.57
2018-02-06T21:30:04.294Z,12.47
2018-02-06T21:32:33.232Z,12.03
2018-02-06T21:35:00.751Z,9.70
2018-02-06T21:37:29.091Z,10.13
2018-02-06T21:39:56.645Z,12.50
2018-02-06T21:42:24.660Z,9.70
2018-02-06T21:44:52.967Z,10.83
2018-02-06T21:47:20.775Z,11.10
2018-02-06T21:49:48.398Z,9.03
2018-02-06T21:52:16.179Z,8.40
2018-02-06T21:54:43.723Z,9.70
2018-02-06T21:57:11.369Z,8.80
2018-02-06T21:59:39.162Z,11.97
2018-02-06T22:02:06.871Z,9.43
2018-02-06T22:04:35.172Z,8.90
2018-02-06T22:07:03.690Z,8.57
2018-02-06T22:09:31.360Z,8.93
2018-02-06T22:11:58.993Z,11.20
2018-02-06T22:14:26.555Z,9.80
2018-02-06T22:16:54.924Z,10.67
2018-02-06T22:19:23.230Z,10.10
2018-02-06T22:21:50.709Z,10.10
2018-02-06T22:24:18.180Z,10.50
2018-02-06T22:26:45.668Z,10.87
2018-02-06T22:29:13.912Z,11.37
2018-02-06T22:31:41.400Z,10.20
2018-02-06T22:34:09.647Z,12.30
2018-02-06T22:36:37.125Z,11.27
2018-02-06T22:39:04.628Z,11.27
2018-02-06T22:41:33.337Z,12.67
2018-02-06T22:44:00.989Z,12.80
2018-02-06T22:46:28.561Z,12.00
2018-02-06T22:48:56.039Z,11.93
2018-02-06T22:51:23.553Z,11.97
2018-02-06T22:53:51.036Z,12.23
2018-02-06T22:56:18.513Z,13.70
2018-02-06T22:58:46.010Z,12.67
2018-02-06T23:01:14.264Z,12.47
2018-02-06T23:03:41.761Z,14.53
2018-02-06T23:06:09.464Z,14.50
2018-02-06T23:08:37.954Z,14.97
2018-02-06T23:11:05.457Z,13.53
2018-02-06T23:13:33.705Z,17.10
2018-02-06T23:16:01.180Z,17.03
2018-02-06T23:18:30.440Z,15.97
2018-02-06T23:20:57.912Z,17.63
2018-02-06T23:23:25.403Z,17.93
2018-02-06T23:25:53.648Z,20.20
2018-02-06T23:28:21.232Z,19.23
2018-02-06T23:30:49.484Z,18.50
2018-02-06T23:33:17.730Z,18.40
2018-02-06T23:35:45.212Z,19.90
2018-02-06T23:38:12.713Z,20.07
2018-02-06T23:40:40.948Z,19.07
2018-02-06T23:43:08.428Z,18.53
2018-02-06T23:45:36.688Z,18.83
2018-02-06T23:48:04.167Z,19.80
2018-02-06T23:50:32.438Z,19.10
2018-02-06T23:52:59.911Z,18.23
2018-02-06T23:55:28.156Z,18.37
2018-02-06T23:57:55.644Z,15.80
